Portada
METAR-TAF:

METAR-TAF

Aeroports :

Parsabad, Iran

latitud: 39-36-13N, longitud: 47-52-53E, altitud: 77 m

Observació

L'informe es va fer fa 1 hora i 11 minuts, a les 08:00 UTC
Vent calma
Temperatura 16°C
Humitat 55%
Pressió 1026 hPa
Visibilitat 10 km o més
sense núvols per sota de 1500 mi sense presència de cumulonimbus.

METAR: OITP 120800Z 00000KT CAVOK 16/07 Q1026

Hora: 12:41 (09:11 UTC)


TAF: manca

Observacions i pronòstics meteorològics de més de 4000 aeroports (METAR i TAF).

Les estacions disponibles són els punts grocs i vermells al mapa.

Posi el ratolí al punt desitjat per veure el nom de l'estació.

Feu clic per veure les observacions i els pronòstics meteorològics.

Per canviar el mapa: feu clic els botons verds amb una creu de color negre per apropar; al botó verd amb un guió per allunyar la imatge; o en les fletxes verdes per a mapes adjacents.


METAR-TAF: